Flugplatz Adolf Würth

Bericht für EDTY

vom 26.11. um 11:20 UTC

Wind 3 kt aus 250°

Sichtweite 10 km oder mehr

gering bewölkt in 900 ft

aufgebrochene Bewölkung in 1100 ft

aufgebrochene Bewölkung in 1800 ft

Temperatur 8.0°C

Taupunkt 5.0°C

Luftfeuchtigkeit 81%

Luftdruck 1031 hPa

EDTY 261120Z 25003KT 210V280 9999 FEW009 BKN011 BKN018 08/05 Q1031

Prognose für EDTY

vom 26.11. um 11:00 UTC

Zwischen 12:00 UTC und 17:00 UTC

variable Windrichtung mit 2 kt

Sichtweite 10 km oder mehr

gering bewölkt in 900 ft

aufgebrochene Bewölkung in 2000 ft


Zwischen 12:00 UTC und 15:00 UTC zeitweise mit einer Wahrscheinlichkeit von 30%

aufgebrochene Bewölkung in 1200 ft


Zwischen 17:00 und 20:00 UTC übergehend zu

variable Windrichtung mit 2 kt

Sichtweite 1200 m

Nebelschwaden

gering bewölkt in 900 ft

aufgebrochene Bewölkung in 2000 ft

TAF EDTY 261100Z 2612/2621 VRB02KT 9999 FEW009 BKN020 PROB30 TEMPO 2612/2615 BKN012 BECMG 2617/2620 1200 BCFG
Impressum